SAAP/PRA METAR and TAF weather

Enter ICAO airport designator
Station Type Date Time Source
SAAP METAR 2019/02/11 08:11 UTC NOAA

SAAP 110811Z 21022G35KT 3000 TSRA BKN040 FEW048CB 23/22 Q1003


Station Type Date Time Source
SAAP Decoded METAR 2019/02/11 08:11 UTC NOAA

Parana Aerodrome, Argentina (SAAP) 31-47S 060-29W 78M
Feb 11, 2019 - 03:11 AM EST / 2019.02.11 0811 UTC
Wind: from the SSW (210 degrees) at 25 MPH (22 KT) gusting to 40 MPH (35 KT):0
Visibility: 1 mile(s):0
Sky conditions: mostly cloudy
Weather: rain with thunder; Cumulonimbus clouds observed
Temperature: 73 F (23 C)
Dew Point: 71 F (22 C)
Relative Humidity: 94%
Pressure (altimeter): 29.62 in. Hg (1003 hPa)
ob: SAAP 110811Z 21022G35KT 3000 TSRA BKN040 FEW048CB 23/22 Q1003
cycle: 8

Station Type Date Time Source
SAAP TAF 2019/02/11 06:18 UTC NOAA

TAF TAF SAAP 110500Z 1106/1206 05005KT 5000 BR NSC TX29/1119Z TN22/1109Z
BECMG 1108/1110 VRB15KT 5000 TSRA SCT010 FEW040CB BKN050
BECMG 1114/1116 20010KT 8000 -RA SCT020 BKN040
BECMG 1120/1122 16020KT 9999 BKN025


Example: see airport list